createdAt,value
2023-03-25T00:01:13.430Z,27
2023-03-25T00:06:50.669Z,26.3
2023-03-25T00:12:11.619Z,25.9
2023-03-25T00:18:03.565Z,31.2
2023-03-25T00:23:23.843Z,31.7
2023-03-25T00:29:00.083Z,30.6
2023-03-25T00:34:37.089Z,29.7
2023-03-25T00:40:29.115Z,28.9
2023-03-25T00:46:06.221Z,28.1
2023-03-25T00:51:52.624Z,27.3
2023-03-25T00:57:44.218Z,26.6
2023-03-25T01:03:37.144Z,25.9
2023-03-25T01:09:13.960Z,30.2
2023-03-25T01:14:50.299Z,32.2
2023-03-25T01:20:27.372Z,30.9
2023-03-25T01:26:19.438Z,29.9
2023-03-25T01:32:11.623Z,29.1
2023-03-25T01:37:32.495Z,28.3
2023-03-25T01:43:19.499Z,27.5
2023-03-25T01:48:40.743Z,26.8
2023-03-25T01:54:31.843Z,26.1
2023-03-25T02:00:08.005Z,27.6
2023-03-25T02:05:45.001Z,31.7
2023-03-25T02:11:21.038Z,31.4
2023-03-25T02:17:13.039Z,30.3
2023-03-25T02:23:04.861Z,26.1
2023-03-25T02:28:40.587Z,25.3
2023-03-25T02:34:32.379Z,23.9
2023-03-25T02:40:08.390Z,23.4
2023-03-25T02:45:44.719Z,23
2023-03-25T02:51:36.671Z,25.3
2023-03-25T02:57:27.967Z,31.3
2023-03-25T03:03:19.763Z,31.4
2023-03-25T03:08:40.716Z,30.3
2023-03-25T03:14:16.238Z,26.3
2023-03-25T03:20:08.269Z,25.4
2023-03-25T03:26:00.168Z,24
2023-03-25T03:32:38.535Z,23.6
2023-03-25T03:38:30.053Z,23.1
2023-03-25T03:44:06.291Z,26.8
2023-03-25T03:49:58.043Z,31.5
2023-03-25T03:55:34.193Z,31.3
2023-03-25T04:01:26.456Z,30.2
2023-03-25T04:07:02.725Z,26.1
2023-03-25T04:12:54.007Z,25.4
2023-03-25T04:18:32.766Z,23.9
2023-03-25T04:24:08.998Z,23.4
2023-03-25T04:29:44.983Z,23.1
2023-03-25T04:35:37.134Z,22.7
2023-03-25T04:41:28.924Z,22.4
2023-03-25T04:46:49.524Z,27.9
2023-03-25T04:52:41.576Z,31.7
2023-03-25T04:58:33.456Z,31.3
2023-03-25T05:04:25.201Z,30.2
2023-03-25T05:10:17.303Z,26
2023-03-25T05:16:08.477Z,24.9
2023-03-25T05:21:44.682Z,23.9
2023-03-25T05:27:36.376Z,23.4
2023-03-25T05:33:29.182Z,23
2023-03-25T05:39:20.842Z,22.9
2023-03-25T05:44:58.298Z,29.6
2023-03-25T05:50:49.824Z,32.8
2023-03-25T05:56:45.727Z,31
2023-03-25T06:02:54.379Z,29.9
2023-03-25T06:08:44.547Z,29.1
2023-03-25T06:14:35.724Z,28.3
2023-03-25T06:20:28.058Z,27.5
2023-03-25T06:26:19.392Z,26.8
2023-03-25T06:32:10.423Z,26.1
2023-03-25T06:38:23.598Z,31
2023-03-25T06:43:59.434Z,31.9
2023-03-25T06:49:35.980Z,30.6
2023-03-25T06:55:27.512Z,29.8
2023-03-25T07:01:18.944Z,28.9
2023-03-25T07:07:12.408Z,28.1
2023-03-25T07:13:04.370Z,27.4
2023-03-25T07:18:59.781Z,26.6
2023-03-25T07:24:53.967Z,28.3
2023-03-25T07:30:46.613Z,33
2023-03-25T07:36:39.457Z,31.1
2023-03-25T07:42:31.734Z,30.1
2023-03-25T07:48:30.629Z,29.3
2023-03-25T07:54:22.902Z,28.4
2023-03-25T08:00:17.400Z,27.7
2023-03-25T08:06:11.719Z,26.9
2023-03-25T08:12:05.849Z,25.7
2023-03-25T08:17:58.340Z,32.4
2023-03-25T08:23:37.029Z,31.3
2023-03-25T08:29:29.652Z,30.1
2023-03-25T08:35:21.214Z,29.2
2023-03-25T08:40:58.011Z,28.3
2023-03-25T08:46:33.414Z,31.1
2023-03-25T08:52:24.452Z,32.3
2023-03-25T08:57:45.492Z,30.4
2023-03-25T09:03:40.358Z,29.5
2023-03-25T09:09:40.758Z,28.6
2023-03-25T09:15:44.406Z,27.9
2023-03-25T09:21:37.982Z,32.8
2023-03-25T09:27:30.554Z,30.8
2023-03-25T09:33:23.219Z,29.7
2023-03-25T09:39:00.048Z,28.8
2023-03-25T09:44:51.534Z,27.5
2023-03-25T09:50:51.174Z,33.4
2023-03-25T09:56:43.180Z,31.1
2023-03-25T10:02:35.937Z,30.1
2023-03-25T10:07:57.469Z,29.1
2023-03-25T10:13:36.290Z,28.3
2023-03-25T10:19:28.234Z,33
2023-03-25T10:25:20.320Z,31.5
2023-03-25T10:31:11.801Z,30.3
2023-03-25T10:37:05.350Z,29.3
2023-03-25T10:42:57.479Z,28.4
2023-03-25T10:48:49.535Z,27.6
2023-03-25T10:54:40.721Z,26.9
2023-03-25T11:00:32.536Z,26.2
2023-03-25T11:06:25.611Z,25.6
2023-03-25T11:12:42.384Z,25.1
2023-03-25T11:18:20.587Z,24.6
2023-03-25T11:24:15.258Z,24.3
2023-03-25T11:30:07.427Z,24
2023-03-25T11:35:59.467Z,23.7
2023-03-25T11:41:51.723Z,23.5
2023-03-25T11:47:12.517Z,23.3
2023-03-25T11:52:49.060Z,23.2
2023-03-25T11:58:41.002Z,23
2023-03-25T12:04:02.541Z,22.8
2023-03-25T12:09:39.418Z,22.7
2023-03-25T12:15:33.700Z,22.6
2023-03-25T12:21:27.251Z,22.5
2023-03-25T12:27:02.727Z,22.4
2023-03-25T12:32:55.090Z,22.3
2023-03-25T12:38:47.188Z,22.3
2023-03-25T12:44:55.812Z,22.1
2023-03-25T12:50:34.261Z,22.1
2023-03-25T12:55:56.415Z,22
2023-03-25T13:01:49.647Z,21.9
2023-03-25T13:07:41.850Z,21.9
2023-03-25T13:13:33.671Z,21.8
2023-03-25T13:19:19.198Z,21.8
2023-03-25T13:25:16.289Z,21.7
2023-03-25T13:31:08.791Z,21.7
2023-03-25T13:36:46.168Z,21.6
2023-03-25T13:42:41.191Z,21.6
2023-03-25T13:48:17.959Z,21.5
2023-03-25T13:53:56.000Z,21.4
2023-03-25T13:59:48.953Z,21.4
2023-03-25T14:05:43.733Z,21.4
2023-03-25T14:11:36.012Z,21.4
2023-03-25T14:17:12.680Z,21.3
2023-03-25T14:22:53.794Z,21.3
2023-03-25T14:28:30.059Z,21.3
2023-03-25T14:34:22.294Z,21.2
2023-03-25T14:40:00.110Z,21.2
2023-03-25T14:57:32.696Z,21.1
2023-03-25T15:03:28.394Z,21.1
2023-03-25T15:09:19.951Z,21
2023-03-25T15:14:56.422Z,21
2023-03-25T15:20:48.361Z,21
2023-03-25T15:26:40.078Z,20.9
2023-03-25T15:32:32.123Z,20.9
2023-03-25T15:38:35.285Z,20.9
2023-03-25T15:44:39.158Z,20.9
2023-03-25T15:50:31.589Z,20.9
2023-03-25T15:56:28.747Z,20.8
2023-03-25T16:02:19.662Z,20.8
2023-03-25T16:08:11.360Z,20.8
2023-03-25T16:14:03.089Z,20.8
2023-03-25T16:19:39.699Z,20.8
2023-03-25T16:25:15.451Z,20.8
2023-03-25T16:30:54.674Z,20.8
2023-03-25T16:36:32.740Z,20.8
2023-03-25T16:42:08.836Z,20.7
2023-03-25T16:47:46.841Z,20.7
2023-03-25T16:53:22.404Z,20.6
2023-03-25T16:59:14.591Z,20.6
2023-03-25T17:05:07.553Z,20.6
2023-03-25T17:10:58.899Z,20.6
2023-03-25T17:16:38.248Z,20.6
2023-03-25T17:22:15.530Z,20.6
2023-03-25T17:28:07.352Z,20.6
2023-03-25T17:34:00.652Z,20.6
2023-03-25T17:39:37.336Z,20.6
2023-03-25T17:45:29.709Z,20.5
2023-03-25T17:51:22.070Z,20.5
2023-03-25T17:57:13.592Z,20.5
2023-03-25T18:03:06.170Z,20.4
2023-03-25T18:08:56.983Z,20.4
2023-03-25T18:14:48.695Z,20.5
2023-03-25T18:20:25.513Z,20.4
2023-03-25T18:26:14.679Z,20.4
2023-03-25T18:32:20.862Z,20.4
2023-03-25T18:38:12.387Z,20.4
2023-03-25T18:43:48.119Z,20.4
2023-03-25T18:49:40.237Z,20.4
2023-03-25T18:55:15.436Z,20.4
2023-03-25T19:01:06.567Z,20.4
2023-03-25T19:07:12.674Z,20.4
2023-03-25T19:13:16.638Z,20.4
2023-03-25T19:19:16.404Z,20.3
2023-03-25T19:25:07.940Z,20.3
2023-03-25T19:30:59.311Z,20.3
2023-03-25T19:36:51.958Z,20.3
2023-03-25T19:42:29.242Z,20.3
2023-03-25T19:48:06.643Z,20.3
2023-03-25T19:53:57.304Z,20.3
2023-03-25T19:59:49.214Z,20.3
2023-03-25T20:05:26.677Z,20.3
2023-03-25T20:11:27.360Z,20.2
2023-03-25T20:17:04.092Z,20.2
2023-03-25T20:22:54.858Z,20.2
2023-03-25T20:28:15.421Z,20.2
2023-03-25T20:34:03.238Z,20.2
2023-03-25T20:40:03.668Z,20.2
2023-03-25T20:46:02.106Z,20.2
2023-03-25T20:51:54.202Z,20.1
2023-03-25T20:57:46.703Z,20.1
2023-03-25T21:03:23.391Z,20.2
2023-03-25T21:09:25.590Z,20.1
2023-03-25T21:15:28.999Z,20.1
2023-03-25T21:21:22.066Z,19.4
2023-03-25T21:27:00.199Z,30.2
2023-03-25T21:32:53.917Z,33.1
2023-03-25T21:38:45.672Z,31.6
2023-03-25T21:44:56.016Z,30.5
2023-03-25T21:50:48.187Z,29.6
2023-03-25T21:56:26.781Z,28.8
2023-03-25T22:01:48.691Z,28
2023-03-25T22:07:25.504Z,27.3
2023-03-25T22:13:16.376Z,26.4
2023-03-25T22:19:08.746Z,31.3
2023-03-25T22:25:03.321Z,32.6
2023-03-25T22:30:39.171Z,30.9
2023-03-25T22:36:30.792Z,29.9
2023-03-25T22:42:07.099Z,29.1
2023-03-25T22:47:59.436Z,28.3
2023-03-25T22:53:51.556Z,27.5
2023-03-25T22:59:44.280Z,26.8
2023-03-25T23:05:05.600Z,25.3
2023-03-25T23:10:52.011Z,31.4
2023-03-25T23:16:45.291Z,32.3
2023-03-25T23:22:22.111Z,31.1
2023-03-25T23:28:16.756Z,30.2
2023-03-25T23:34:08.918Z,29.3
2023-03-25T23:39:45.268Z,28.4
2023-03-25T23:45:38.013Z,27.7
2023-03-25T23:51:14.005Z,26.9
2023-03-25T23:56:34.479Z,27.6
